Terminal Aerodrome Forecast
Issued by NWS

Home | Current Version | Previous Version | Text Only | Print | Product List | Glossary On
Versions: 1 2 3 4 5 6 7 8 9 10 11 12 13 14 15 16
000
FTUS45 KGGW 082320
TAFSDY
TAF
KSDY 082320Z 0900/0924 00000KT P6SM FEW020
     FM090700 VRB03KT P6SM BKN015
     FM092100 06005KT P6SM BKN035=

USA.gov is the U.S. government's official web portal to all federal, state and local government web resources and services.